createdAt,value
2022-12-27T00:02:09.877Z,58.00
2022-12-27T00:04:55.818Z,57.92
2022-12-27T00:07:42.887Z,57.67
2022-12-27T00:10:29.053Z,57.98
2022-12-27T00:13:15.086Z,57.75
2022-12-27T00:16:09.638Z,58.15
2022-12-27T00:18:56.120Z,57.92
2022-12-27T00:21:42.418Z,57.73
2022-12-27T00:24:28.580Z,57.77
2022-12-27T00:27:14.624Z,58.26
2022-12-27T00:30:00.873Z,58.30
2022-12-27T00:32:46.787Z,57.68
2022-12-27T00:35:32.611Z,57.80
2022-12-27T00:38:18.950Z,58.04
2022-12-27T00:41:05.050Z,58.17
2022-12-27T00:43:50.845Z,58.19
2022-12-27T00:46:36.750Z,58.07
2022-12-27T00:49:22.587Z,58.51
2022-12-27T00:52:08.422Z,58.24
2022-12-27T00:54:54.258Z,58.10
2022-12-27T00:57:40.120Z,58.36
2022-12-27T01:00:27.703Z,58.02
2022-12-27T01:03:14.045Z,58.39
2022-12-27T01:06:11.396Z,58.46
2022-12-27T01:08:57.800Z,58.32
2022-12-27T01:11:43.777Z,58.27
2022-12-27T01:14:29.587Z,58.15
2022-12-27T01:17:15.626Z,58.36
2022-12-27T01:20:01.654Z,58.51
2022-12-27T01:22:47.780Z,58.81
2022-12-27T01:25:33.560Z,58.50
2022-12-27T01:28:19.397Z,58.44
2022-12-27T01:31:10.814Z,58.75
2022-12-27T01:34:00.540Z,58.50
2022-12-27T01:36:46.597Z,58.53
2022-12-27T01:39:32.466Z,58.38
2022-12-27T01:42:37.910Z,58.59
2022-12-27T01:45:30.615Z,58.76
2022-12-27T01:48:18.743Z,58.63
2022-12-27T01:51:05.360Z,58.93
2022-12-27T01:53:53.152Z,58.35
2022-12-27T01:56:39.537Z,58.42
2022-12-27T01:59:25.590Z,58.59
2022-12-27T02:02:11.836Z,58.36
2022-12-27T02:04:58.764Z,58.50
2022-12-27T02:08:08.244Z,58.29
2022-12-27T02:10:55.711Z,58.87
2022-12-27T02:13:44.911Z,58.64
2022-12-27T02:16:30.959Z,58.69
2022-12-27T02:19:37.015Z,58.72
2022-12-27T02:23:10.337Z,58.81
2022-12-27T02:26:12.089Z,58.78
2022-12-27T02:28:57.945Z,58.90
2022-12-27T02:32:11.518Z,59.07
2022-12-27T02:35:14.109Z,59.32
2022-12-27T02:38:06.334Z,58.69
2022-12-27T02:41:12.483Z,58.99
2022-12-27T02:44:17.333Z,58.80
2022-12-27T02:47:22.927Z,58.73
2022-12-27T02:50:29.584Z,59.21
2022-12-27T02:53:19.693Z,59.03
2022-12-27T02:56:53.342Z,59.00
2022-12-27T02:59:59.135Z,58.99
2022-12-27T03:03:10.516Z,59.25
2022-12-27T03:06:40.115Z,59.00
2022-12-27T03:09:47.724Z,58.99
2022-12-27T03:13:04.377Z,59.35
2022-12-27T03:15:59.462Z,59.05
2022-12-27T03:19:07.285Z,59.10
2022-12-27T03:22:11.977Z,59.35
2022-12-27T03:25:16.561Z,59.35
2022-12-27T03:28:25.244Z,59.30
2022-12-27T03:31:46.466Z,59.25
2022-12-27T03:34:38.363Z,58.99
2022-12-27T03:37:49.166Z,59.07
2022-12-27T03:41:04.249Z,59.60
2022-12-27T03:43:51.747Z,59.07
2022-12-27T03:46:39.092Z,59.09
2022-12-27T03:50:13.199Z,59.18
2022-12-27T03:53:21.768Z,59.27
2022-12-27T03:56:08.478Z,59.22
2022-12-27T03:58:54.925Z,59.22
2022-12-27T04:01:42.469Z,59.30
2022-12-27T04:04:28.630Z,59.62
2022-12-27T04:07:15.100Z,59.14
2022-12-27T04:10:19.933Z,58.83
2022-12-27T04:13:24.710Z,59.15
2022-12-27T04:16:29.383Z,59.16
2022-12-27T04:19:34.441Z,59.38
2022-12-27T04:22:38.892Z,59.30
2022-12-27T04:25:43.393Z,59.19
2022-12-27T04:28:47.689Z,59.26
2022-12-27T04:31:54.899Z,59.26
2022-12-27T04:34:44.012Z,58.97
2022-12-27T04:37:29.961Z,59.25
2022-12-27T04:40:45.119Z,59.08
2022-12-27T04:43:49.341Z,59.29
2022-12-27T04:46:53.926Z,58.82
2022-12-27T04:49:59.217Z,59.41
2022-12-27T04:53:03.926Z,59.44
2022-12-27T04:55:49.838Z,59.10
2022-12-27T04:58:35.784Z,58.99
2022-12-27T05:01:40.250Z,59.44
2022-12-27T05:04:26.329Z,59.27
2022-12-27T05:07:32.334Z,59.36
2022-12-27T05:10:37.137Z,59.29
2022-12-27T05:13:41.734Z,59.18
2022-12-27T05:16:30.708Z,59.00
2022-12-27T05:19:16.783Z,59.32
2022-12-27T05:22:21.055Z,59.38
2022-12-27T05:25:25.666Z,59.46
2022-12-27T05:28:12.895Z,59.03
2022-12-27T05:31:05.449Z,59.04
2022-12-27T05:33:52.141Z,58.92
2022-12-27T05:36:38.089Z,59.21
2022-12-27T05:39:23.847Z,59.21
2022-12-27T05:42:09.691Z,59.34
2022-12-27T05:44:55.557Z,58.74
2022-12-27T05:47:41.673Z,59.38
2022-12-27T05:50:27.994Z,59.17
2022-12-27T05:53:28.464Z,59.33
2022-12-27T05:56:19.721Z,59.00
2022-12-27T05:59:08.091Z,59.38
2022-12-27T06:01:54.463Z,59.13
2022-12-27T06:04:40.640Z,59.23
2022-12-27T06:07:26.483Z,59.31
2022-12-27T06:10:12.586Z,59.34
2022-12-27T06:13:00.415Z,59.31
2022-12-27T06:15:46.380Z,59.30
2022-12-27T06:18:34.073Z,59.38
2022-12-27T06:21:21.908Z,59.04
2022-12-27T06:24:07.993Z,59.15
2022-12-27T06:26:53.909Z,59.29
2022-12-27T06:29:39.640Z,59.10
2022-12-27T06:32:25.491Z,59.50
2022-12-27T06:35:11.335Z,59.40
2022-12-27T06:37:57.539Z,59.68
2022-12-27T06:40:43.468Z,59.33
2022-12-27T06:43:29.247Z,59.25
2022-12-27T06:46:18.495Z,59.18
2022-12-27T06:49:04.721Z,59.37
2022-12-27T06:51:55.820Z,59.48
2022-12-27T06:54:45.581Z,59.58
2022-12-27T06:57:31.213Z,59.36
2022-12-27T07:00:17.954Z,59.53
2022-12-27T07:03:04.445Z,59.56
2022-12-27T07:05:50.091Z,59.64
2022-12-27T07:08:36.460Z,59.80
2022-12-27T07:11:22.606Z,59.95
2022-12-27T07:14:09.765Z,59.77
2022-12-27T07:16:55.653Z,59.75
2022-12-27T07:19:41.986Z,59.50
2022-12-27T07:22:28.067Z,59.69
2022-12-27T07:25:14.288Z,59.65
2022-12-27T07:28:00.117Z,59.91
2022-12-27T07:30:45.919Z,59.79
2022-12-27T07:33:31.957Z,59.97
2022-12-27T07:36:20.493Z,59.83
2022-12-27T07:39:07.246Z,60.08
2022-12-27T07:41:53.456Z,60.22
2022-12-27T07:44:39.358Z,60.13
2022-12-27T07:47:25.406Z,60.08
2022-12-27T07:50:11.286Z,59.69
2022-12-27T07:52:58.487Z,59.85
2022-12-27T07:55:47.098Z,60.43
2022-12-27T07:58:43.165Z,60.47
2022-12-27T08:01:50.637Z,60.05
2022-12-27T08:04:38.305Z,59.84
2022-12-27T08:07:25.358Z,60.35
2022-12-27T08:10:11.296Z,60.24
2022-12-27T08:12:57.389Z,60.10
2022-12-27T08:15:44.160Z,60.35
2022-12-27T08:18:30.253Z,59.98
2022-12-27T08:21:16.869Z,59.86
2022-12-27T08:24:02.942Z,60.14
2022-12-27T08:26:48.752Z,59.96
2022-12-27T08:29:34.694Z,60.03
2022-12-27T08:32:20.568Z,60.16
2022-12-27T08:35:41.738Z,60.00
2022-12-27T08:38:13.479Z,60.15
2022-12-27T08:40:59.443Z,60.14
2022-12-27T08:43:45.190Z,60.14
2022-12-27T08:46:31.316Z,59.81
2022-12-27T08:49:17.339Z,59.88
2022-12-27T08:52:03.200Z,60.32
2022-12-27T08:54:49.098Z,60.09
2022-12-27T08:57:34.859Z,60.36
2022-12-27T09:00:20.608Z,59.98
2022-12-27T09:03:06.632Z,60.28
2022-12-27T09:05:52.820Z,59.85
2022-12-27T09:08:39.341Z,59.81
2022-12-27T09:11:31.315Z,59.77
2022-12-27T09:14:17.311Z,59.94
2022-12-27T09:17:03.462Z,60.18
2022-12-27T09:19:50.350Z,59.99
2022-12-27T09:22:36.289Z,60.10
2022-12-27T09:25:22.215Z,59.95
2022-12-27T09:28:09.355Z,59.97
2022-12-27T09:30:55.685Z,60.19
2022-12-27T09:33:42.106Z,59.91
2022-12-27T09:36:29.599Z,60.02
2022-12-27T09:39:17.250Z,60.13
2022-12-27T09:42:49.849Z,59.84
2022-12-27T09:45:41.772Z,59.59
2022-12-27T09:48:39.599Z,60.01
2022-12-27T09:51:31.624Z,59.93
2022-12-27T09:54:29.488Z,59.88
2022-12-27T09:57:23.604Z,59.84
2022-12-27T10:00:15.116Z,59.96
2022-12-27T10:03:04.571Z,60.31
2022-12-27T10:05:56.628Z,59.93
2022-12-27T10:08:57.761Z,60.50
2022-12-27T10:12:05.990Z,60.41
2022-12-27T10:14:56.103Z,59.87
2022-12-27T10:18:06.896Z,60.61
2022-12-27T10:21:21.941Z,59.92
2022-12-27T10:24:24.312Z,59.97
2022-12-27T10:27:15.368Z,60.55
2022-12-27T10:30:01.693Z,60.30
2022-12-27T10:32:48.649Z,60.12
2022-12-27T10:35:34.679Z,60.04
2022-12-27T10:38:20.813Z,60.64
2022-12-27T10:41:22.191Z,60.27
2022-12-27T10:44:11.088Z,60.04
2022-12-27T10:46:57.267Z,59.88
2022-12-27T10:49:59.001Z,60.33
2022-12-27T10:52:44.886Z,60.14
2022-12-27T10:55:36.985Z,60.22
2022-12-27T10:58:26.021Z,60.66
2022-12-27T11:01:27.074Z,59.92
2022-12-27T11:04:22.657Z,60.39
2022-12-27T11:07:08.475Z,60.13
2022-12-27T11:10:06.078Z,60.06
2022-12-27T11:13:05.173Z,59.99
2022-12-27T11:15:58.771Z,60.44
2022-12-27T11:18:53.087Z,60.40
2022-12-27T11:21:40.663Z,60.03
2022-12-27T11:24:26.595Z,60.18
2022-12-27T11:27:22.688Z,60.15
2022-12-27T11:30:34.092Z,59.97
2022-12-27T11:33:25.396Z,60.33
2022-12-27T11:36:12.319Z,60.25
2022-12-27T11:39:00.761Z,60.39
2022-12-27T11:41:50.193Z,60.58
2022-12-27T11:44:43.109Z,60.35
2022-12-27T11:47:55.777Z,60.56
2022-12-27T11:50:56.620Z,60.19
2022-12-27T11:54:04.507Z,60.22
2022-12-27T11:57:19.367Z,60.38
2022-12-27T12:00:23.881Z,60.04
2022-12-27T12:03:34.464Z,60.22
2022-12-27T12:06:20.152Z,60.46
2022-12-27T12:09:49.789Z,60.73
2022-12-27T12:13:04.209Z,60.66
2022-12-27T12:16:05.725Z,60.57
2022-12-27T12:19:19.377Z,60.73
2022-12-27T12:22:56.438Z,61.11
2022-12-27T12:26:06.844Z,61.44
2022-12-27T12:29:08.020Z,61.23
2022-12-27T12:32:18.214Z,60.51
2022-12-27T12:35:19.679Z,60.63
2022-12-27T12:38:12.252Z,60.29
2022-12-27T12:41:20.122Z,60.86
2022-12-27T12:44:21.357Z,60.86
2022-12-27T12:47:25.702Z,60.90
2022-12-27T12:50:20.859Z,60.65
2022-12-27T12:53:24.540Z,60.39
2022-12-27T12:56:16.361Z,60.24
2022-12-27T12:59:30.598Z,60.79
2022-12-27T13:02:16.743Z,60.28
2022-12-27T13:05:35.886Z,60.53
2022-12-27T13:08:30.459Z,60.56
2022-12-27T13:11:29.478Z,60.17
2022-12-27T13:14:21.504Z,60.47
2022-12-27T13:17:21.435Z,59.74
2022-12-27T13:20:19.692Z,59.59
2022-12-27T13:23:31.042Z,60.05
2022-12-27T13:26:39.036Z,59.38
2022-12-27T13:29:48.427Z,58.18
2022-12-27T13:33:11.809Z,57.72
2022-12-27T13:36:21.339Z,57.80
2022-12-27T13:39:31.876Z,58.05
2022-12-27T13:43:00.652Z,58.52
2022-12-27T13:46:28.293Z,59.09
2022-12-27T13:49:22.642Z,59.19
2022-12-27T13:52:37.619Z,59.55
2022-12-27T13:55:51.720Z,59.67
2022-12-27T13:58:56.243Z,59.75
2022-12-27T14:02:03.596Z,59.58
2022-12-27T14:05:01.840Z,59.74
2022-12-27T14:08:06.521Z,60.07
2022-12-27T14:11:00.533Z,59.94
2022-12-27T14:13:47.666Z,60.45
2022-12-27T14:16:59.099Z,60.91
2022-12-27T14:20:33.231Z,60.02
2022-12-27T14:23:22.199Z,60.59
2022-12-27T14:26:39.299Z,60.24
2022-12-27T14:30:01.275Z,60.43
2022-12-27T14:32:51.946Z,60.01
2022-12-27T14:35:51.858Z,60.11
2022-12-27T14:38:54.001Z,60.29
2022-12-27T14:42:17.914Z,60.07
2022-12-27T14:45:41.526Z,60.11
2022-12-27T14:49:22.181Z,59.92
2022-12-27T14:52:33.642Z,59.90
2022-12-27T14:55:52.003Z,59.93
2022-12-27T14:58:37.785Z,59.93
2022-12-27T15:01:46.703Z,60.32
2022-12-27T15:04:44.572Z,59.92
2022-12-27T15:07:30.591Z,59.84
2022-12-27T15:10:39.790Z,59.91
2022-12-27T15:13:51.682Z,59.87
2022-12-27T15:17:08.214Z,60.30
2022-12-27T15:20:12.881Z,59.92
2022-12-27T15:23:17.518Z,60.26
2022-12-27T15:26:32.786Z,60.13
2022-12-27T15:29:38.582Z,59.81
2022-12-27T15:32:46.996Z,60.17
2022-12-27T15:35:41.248Z,61.26
2022-12-27T15:38:27.215Z,60.12
2022-12-27T15:41:51.075Z,60.31
2022-12-27T15:44:36.882Z,60.58
2022-12-27T15:47:47.631Z,59.87
2022-12-27T15:50:33.407Z,59.99
2022-12-27T15:53:41.044Z,59.59
2022-12-27T15:56:59.871Z,60.15
2022-12-27T15:59:54.144Z,59.84
2022-12-27T16:02:46.573Z,59.67
2022-12-27T16:05:46.840Z,60.12
2022-12-27T16:08:35.138Z,60.14
2022-12-27T16:11:58.988Z,60.08
2022-12-27T16:14:44.966Z,59.78
2022-12-27T16:17:54.147Z,59.69
2022-12-27T16:20:40.339Z,59.62
2022-12-27T16:23:29.344Z,59.21
2022-12-27T16:26:32.926Z,59.53
2022-12-27T16:29:28.124Z,59.68
2022-12-27T16:32:19.236Z,59.21
2022-12-27T16:35:14.311Z,59.21
2022-12-27T16:38:04.313Z,59.35
2022-12-27T16:40:53.908Z,59.36
2022-12-27T16:44:12.843Z,59.02
2022-12-27T16:47:04.743Z,59.28
2022-12-27T16:50:21.458Z,59.17
2022-12-27T16:53:37.423Z,59.37
2022-12-27T16:56:27.970Z,59.10
2022-12-27T16:59:51.323Z,59.19
2022-12-27T17:02:38.217Z,59.04
2022-12-27T17:05:36.488Z,58.88
2022-12-27T17:08:23.939Z,58.84
2022-12-27T17:11:26.643Z,58.83
2022-12-27T17:14:18.811Z,58.99
2022-12-27T17:17:14.815Z,58.96
2022-12-27T17:20:03.909Z,58.89
2022-12-27T17:22:53.672Z,58.85
2022-12-27T17:25:50.191Z,58.54
2022-12-27T17:28:44.597Z,58.56
2022-12-27T17:31:50.728Z,58.84
2022-12-27T17:34:55.873Z,59.19
2022-12-27T17:38:03.846Z,58.86
2022-12-27T17:41:18.095Z,58.91
2022-12-27T17:44:38.052Z,58.83
2022-12-27T17:47:33.399Z,59.05
2022-12-27T17:50:23.937Z,59.03
2022-12-27T17:53:28.343Z,59.02
2022-12-27T17:56:37.042Z,59.11
2022-12-27T17:59:24.946Z,58.91
2022-12-27T18:02:11.214Z,59.43
2022-12-27T18:04:57.872Z,59.11
2022-12-27T18:07:44.137Z,59.13
2022-12-27T18:10:30.892Z,59.10
2022-12-27T18:13:20.059Z,58.66
2022-12-27T18:16:18.343Z,59.31
2022-12-27T18:19:05.127Z,59.23
2022-12-27T18:21:56.457Z,59.07
2022-12-27T18:24:42.255Z,59.03
2022-12-27T18:27:28.258Z,59.03
2022-12-27T18:30:14.290Z,59.37
2022-12-27T18:33:00.977Z,59.17
2022-12-27T18:35:50.233Z,59.22
2022-12-27T18:38:41.887Z,59.07
2022-12-27T18:41:45.230Z,59.05
2022-12-27T18:44:32.606Z,60.08
2022-12-27T18:47:29.701Z,59.43
2022-12-27T18:50:37.549Z,59.58
2022-12-27T19:35:42.985Z,63.42
2022-12-27T19:38:30.689Z,62.78
2022-12-27T19:41:16.568Z,62.15
2022-12-27T19:44:03.498Z,61.53
2022-12-27T19:46:49.187Z,61.23
2022-12-27T19:49:44.178Z,61.21
2022-12-27T19:52:30.471Z,60.79
2022-12-27T19:55:26.751Z,60.75
2022-12-27T19:58:24.431Z,60.60
2022-12-27T20:01:10.561Z,60.12
2022-12-27T20:03:56.394Z,60.48
2022-12-27T20:06:43.101Z,60.06
2022-12-27T20:09:29.445Z,60.40
2022-12-27T20:12:15.725Z,59.87
2022-12-27T20:15:01.827Z,59.89
2022-12-27T20:17:48.027Z,60.34
2022-12-27T20:20:34.095Z,59.93
2022-12-27T20:23:20.485Z,59.89
2022-12-27T21:40:59.268Z,64.20
2022-12-27T21:43:46.920Z,64.28
2022-12-27T21:46:38.416Z,63.40
2022-12-27T21:49:24.422Z,62.95
2022-12-27T21:52:10.293Z,62.70
2022-12-27T21:54:56.115Z,62.19
2022-12-27T21:57:42.064Z,62.07
2022-12-27T22:00:28.039Z,61.34
2022-12-27T22:03:13.930Z,61.27
2022-12-27T22:06:09.442Z,60.37
2022-12-27T22:08:58.870Z,61.08
2022-12-27T22:11:45.155Z,60.18
2022-12-27T22:14:36.689Z,60.21
2022-12-27T22:17:23.009Z,59.73
2022-12-27T22:20:10.085Z,60.12
2022-12-27T22:22:55.755Z,59.48
2022-12-27T22:25:45.029Z,59.45
2022-12-27T22:28:31.241Z,59.48
2022-12-27T22:31:20.757Z,59.46
2022-12-27T22:34:06.976Z,59.21
2022-12-27T22:36:53.027Z,59.32
2022-12-27T22:39:38.836Z,58.85
2022-12-27T22:42:24.603Z,59.10
2022-12-27T22:45:10.919Z,59.21
2022-12-27T22:47:56.878Z,59.10
2022-12-27T22:50:42.980Z,58.71
2022-12-27T22:53:29.488Z,58.76
2022-12-27T22:56:18.955Z,58.73
2022-12-27T22:59:09.552Z,58.69
2022-12-27T23:01:55.629Z,58.57
2022-12-27T23:04:41.540Z,58.35
2022-12-27T23:08:04.382Z,58.41
2022-12-27T23:10:33.344Z,58.46
2022-12-27T23:13:22.353Z,58.43
2022-12-27T23:16:09.035Z,58.21
2022-12-27T23:18:55.179Z,58.17
2022-12-27T23:21:41.914Z,58.24
2022-12-27T23:24:27.647Z,58.34
2022-12-27T23:27:13.706Z,58.18
2022-12-27T23:29:59.542Z,58.28
2022-12-27T23:32:45.323Z,58.10
2022-12-27T23:35:31.124Z,58.23
2022-12-27T23:38:16.972Z,57.80
2022-12-27T23:41:04.804Z,57.93
2022-12-27T23:43:53.715Z,57.58
2022-12-27T23:46:41.541Z,57.99
2022-12-27T23:49:27.710Z,57.82
2022-12-27T23:52:13.638Z,57.77
2022-12-27T23:54:59.569Z,57.36
2022-12-27T23:57:45.563Z,57.35
